Rumley, Texas
Current Conditions -  °F | °C
As of 2:55 PM on Tuesday 21 Oct 2014 (Local Time) from KLZZ Reporting Station
Clear Clear  
Wind Chill: 79°   Ceiling: Unl
Heat Index: 80°   Visibility: 10mi
Dew Point: 58°   Wind: 7mph
Humidity: 48%   Direction: 80°E
Pressure: 30.03"   Gusts: NA
Location:  31.0791°N, 98.0007°W
Report Text: KLZZ 211955Z AUTO 08006KT 10SM CLR 26/14 A3003 RMK AO2 T02600143
Loading
Personal Weather Stations






























Interactive Weather Map New forecast layout! Learn more

10-Day Weather Forecast

Advertisements
Track Severe Weather on mobile